Time;durP1;ratioP1;P1;durP2;ratioP2;P2;SDS_P1;SDS_P2;PMS_P1;PMS_P2;Temp;Humidity;BMP_temperature;BMP_pressure;BME280_temperature;BME280_humidity;BME280_pressure;Samples;Min_cycle;Max_cycle;Signal;HPM_P1;HPM_P2
2022/01/08 00:02:10;;;;;;;3.53;1.80;;;1.60;99.90;;;;;;5018284;28;20056;-80
2022/01/08 00:04:37;;;;;;;3.72;1.95;;;1.70;99.90;;;;;;5036004;28;20393;-80
2022/01/08 00:07:02;;;;;;;3.17;1.95;;;1.70;99.90;;;;;;5014491;28;20046;-79
2022/01/08 00:09:28;;;;;;;4.20;1.92;;;1.80;99.90;;;;;;5016104;28;20029;-79
2022/01/08 00:11:54;;;;;;;3.47;2.10;;;1.80;99.90;;;;;;5015086;28;20026;-78
2022/01/08 00:14:22;;;;;;;2.47;1.90;;;1.80;99.90;;;;;;5014784;28;20022;-79
2022/01/08 00:16:48;;;;;;;4.82;2.05;;;1.80;99.90;;;;;;5016111;28;20029;-79
2022/01/08 00:19:14;;;;;;;3.20;2.03;;;1.70;99.90;;;;;;5014762;28;20077;-79
2022/01/08 00:21:40;;;;;;;3.83;1.98;;;1.80;99.90;;;;;;5014640;28;20029;-79
2022/01/08 00:24:06;;;;;;;6.13;1.80;;;1.80;99.90;;;;;;5014859;28;20026;-79
2022/01/08 00:26:32;;;;;;;4.20;2.00;;;1.80;99.90;;;;;;5014620;28;20030;-79
2022/01/08 00:28:57;;;;;;;4.45;1.88;;;1.80;99.90;;;;;;5014661;28;20018;-79
2022/01/08 00:31:23;;;;;;;3.17;1.85;;;1.80;99.90;;;;;;5014879;28;20022;-79
2022/01/08 00:33:49;;;;;;;3.78;2.35;;;1.80;99.90;;;;;;5015838;28;20093;-79
2022/01/08 00:36:14;;;;;;;2.95;1.85;;;1.90;99.90;;;;;;5014532;28;20108;-79
2022/01/08 00:38:40;;;;;;;4.00;1.80;;;2.00;99.90;;;;;;5016079;28;20505;-79
2022/01/08 00:41:06;;;;;;;4.30;2.05;;;2.10;99.90;;;;;;5014411;28;20481;-79
2022/01/08 00:43:32;;;;;;;3.47;1.83;;;1.80;99.90;;;;;;5014378;28;20037;-79
2022/01/08 00:45:57;;;;;;;2.80;1.75;;;1.80;99.90;;;;;;5015112;28;20025;-79
2022/01/08 00:48:23;;;;;;;2.97;2.00;;;1.80;99.90;;;;;;5014303;28;20076;-80
2022/01/08 00:50:52;;;;;;;5.07;2.28;;;1.70;99.90;;;;;;5015726;28;20029;-79
2022/01/08 00:53:18;;;;;;;4.32;2.20;;;1.50;99.90;;;;;;5014174;28;20026;-79
2022/01/08 00:55:44;;;;;;;2.83;2.00;;;1.60;99.90;;;;;;5015414;28;20083;-79
2022/01/08 00:58:10;;;;;;;4.55;1.90;;;1.70;99.90;;;;;;5015321;28;20034;-79
2022/01/08 01:00:36;;;;;;;2.92;1.92;;;1.80;99.90;;;;;;5014037;28;20076;-79
2022/01/08 01:03:01;;;;;;;4.15;2.08;;;1.80;99.90;;;;;;5015520;28;20539;-79
2022/01/08 01:05:27;;;;;;;4.45;2.20;;;1.60;99.90;;;;;;5015021;28;20026;-80
2022/01/08 01:07:54;;;;;;;5.10;2.33;;;1.60;99.90;;;;;;5013748;28;20140;-79
2022/01/08 01:10:20;;;;;;;2.53;2.00;;;1.50;99.90;;;;;;5013844;28;20033;-79
2022/01/08 01:12:46;;;;;;;6.72;3.25;;;1.70;99.90;;;;;;5015328;28;20025;-79
2022/01/08 01:15:14;;;;;;;5.05;2.30;;;1.70;99.90;;;;;;5013772;28;20026;-79
2022/01/08 01:17:41;;;;;;;4.63;2.80;;;1.60;99.90;;;;;;5013727;28;20054;-79
2022/01/08 01:20:09;;;;;;;4.88;2.58;;;1.60;99.90;;;;;;5014956;28;20436;-79
2022/01/08 01:22:48;;;;;;;4.70;2.85;;;1.70;99.90;;;;;;5013628;28;20022;-79
2022/01/08 01:25:19;;;;;;;5.55;3.00;;;1.80;99.90;;;;;;5013648;28;20029;-78
2022/01/08 01:30:17;;;;;;;4.70;2.72;;;1.80;99.90;;;;;;5015125;28;20018;-79
2022/01/08 01:41:23;;;;;;;3.93;2.57;;;1.90;99.90;;;;;;5014950;28;20376;-79
2022/01/08 01:49:15;;;;;;;4.60;2.88;;;1.90;99.90;;;;;;5014764;28;20091;-79
2022/01/08 01:51:41;;;;;;;6.43;3.30;;;1.80;99.90;;;;;;5013141;28;20492;-79
2022/01/08 01:54:07;;;;;;;3.90;2.72;;;1.70;99.90;;;;;;5013097;28;20026;-79
2022/01/08 01:56:32;;;;;;;6.45;3.00;;;1.70;99.90;;;;;;5013039;28;20030;-79
2022/01/08 01:58:59;;;;;;;5.13;3.20;;;1.70;99.90;;;;;;5012938;28;20038;-79
2022/01/08 02:01:25;;;;;;;5.88;2.60;;;1.80;99.90;;;;;;5014238;28;20030;-79
2022/01/08 02:03:50;;;;;;;3.70;2.63;;;1.70;99.90;;;;;;5012927;28;20371;-79
2022/01/08 02:06:16;;;;;;;4.63;2.85;;;1.80;99.90;;;;;;5015457;28;20033;-79
2022/01/08 02:08:42;;;;;;;5.85;2.65;;;1.80;99.90;;;;;;5016084;28;20025;-78
2022/01/08 02:11:08;;;;;;;9.20;2.55;;;1.90;99.90;;;;;;5016032;28;20075;-79
2022/01/08 02:13:35;;;;;;;5.65;2.95;;;1.90;99.90;;;;;;5033786;28;20032;-79
2022/01/08 02:16:01;;;;;;;6.18;2.80;;;1.90;99.90;;;;;;5015965;28;20128;-79
2022/01/08 02:18:29;;;;;;;5.80;2.90;;;1.90;99.90;;;;;;5015901;28;20029;-79
2022/01/08 02:20:56;;;;;;;4.88;2.58;;;1.70;99.90;;;;;;5015890;28;20116;-79
2022/01/08 02:23:22;;;;;;;2.90;2.25;;;1.70;99.90;;;;;;5033469;28;20136;-79
2022/01/08 02:25:49;;;;;;;3.55;2.40;;;1.80;99.90;;;;;;5015960;28;20025;-79
2022/01/08 02:28:16;;;;;;;5.57;2.83;;;1.80;99.90;;;;;;5033530;28;20025;-79
2022/01/08 02:30:42;;;;;;;3.78;2.40;;;1.80;99.90;;;;;;5016037;28;20102;-79
2022/01/08 02:33:08;;;;;;;6.13;2.53;;;1.90;99.90;;;;;;5015724;28;20481;-78
2022/01/08 02:35:34;;;;;;;3.35;2.50;;;1.80;99.90;;;;;;5015610;28;20029;-79
2022/01/08 02:38:00;;;;;;;13.45;3.20;;;1.80;99.90;;;;;;5015769;28;20032;-78
2022/01/08 02:40:27;;;;;;;3.53;2.42;;;1.70;99.90;;;;;;5015648;28;20018;-78
2022/01/08 02:43:00;;;;;;;6.22;2.97;;;1.70;99.90;;;;;;5015612;28;20037;-78
2022/01/08 02:45:27;;;;;;;4.57;2.92;;;1.80;99.90;;;;;;5015464;28;20076;-80
2022/01/08 02:47:54;;;;;;;3.63;2.58;;;1.70;99.90;;;;;;5015427;28;20405;-78
2022/01/08 02:50:21;;;;;;;5.78;2.83;;;1.70;99.90;;;;;;5015451;28;20378;-79
2022/01/08 02:52:47;;;;;;;6.50;2.78;;;1.60;99.90;;;;;;5033150;28;20022;-77
2022/01/08 02:55:15;;;;;;;6.10;2.92;;;1.70;99.90;;;;;;5015343;28;20030;-78
2022/01/08 02:57:41;;;;;;;5.57;2.85;;;1.60;99.90;;;;;;5033072;28;20029;-78
2022/01/08 03:00:09;;;;;;;4.93;3.00;;;1.70;99.90;;;;;;5033021;28;20029;-79
2022/01/08 03:02:39;;;;;;;7.45;3.58;;;1.80;99.90;;;;;;5033039;28;20053;-77
2022/01/08 03:05:07;;;;;;;6.00;3.30;;;1.70;99.90;;;;;;5015523;28;20386;-78
2022/01/08 03:07:33;;;;;;;6.05;3.08;;;1.60;99.90;;;;;;5014924;28;20128;-77
2022/01/08 03:09:59;;;;;;;5.72;3.28;;;1.60;99.90;;;;;;5033207;28;20117;-77
2022/01/08 03:12:27;;;;;;;5.57;3.60;;;1.50;99.90;;;;;;5015215;28;20021;-78
2022/01/08 03:14:54;;;;;;;8.27;3.30;;;1.50;99.90;;;;;;5015161;28;20080;-77
2022/01/08 03:17:20;;;;;;;4.80;3.30;;;1.50;99.90;;;;;;5015159;28;20144;-78
2022/01/08 03:19:46;;;;;;;5.82;3.88;;;1.50;99.90;;;;;;5015138;28;20108;-77
2022/01/08 03:22:12;;;;;;;10.57;4.15;;;1.50;99.90;;;;;;5015102;28;20032;-77
2022/01/08 03:24:39;;;;;;;5.75;3.15;;;1.40;99.90;;;;;;5032826;28;20492;-77
2022/01/08 03:27:05;;;;;;;6.35;3.97;;;1.50;99.90;;;;;;5014974;28;20032;-77
2022/01/08 03:29:31;;;;;;;4.93;4.15;;;1.60;99.90;;;;;;5015024;28;20374;-77
2022/01/08 03:31:57;;;;;;;5.35;3.88;;;1.50;99.90;;;;;;5015106;28;20096;-77
2022/01/08 03:34:23;;;;;;;6.65;4.50;;;1.50;99.90;;;;;;5015015;28;20485;-77
2022/01/08 03:36:49;;;;;;;7.60;4.25;;;1.60;99.90;;;;;;5015021;28;20079;-77
2022/01/08 03:39:15;;;;;;;6.40;4.53;;;1.50;99.90;;;;;;5014908;28;20025;-77
2022/01/08 03:41:42;;;;;;;6.60;3.90;;;1.50;99.90;;;;;;5014931;28;20029;-77
2022/01/08 03:44:08;;;;;;;9.60;4.70;;;1.60;99.90;;;;;;5014853;28;20374;-77
2022/01/08 03:46:36;;;;;;;7.05;4.63;;;1.50;99.90;;;;;;5014795;28;20060;-76
2022/01/08 03:51:30;;;;;;;5.72;4.38;;;1.70;99.90;;;;;;5032570;28;20485;-77
2022/01/08 03:53:57;;;;;;;5.30;3.90;;;1.70;99.90;;;;;;5014853;28;20021;-78
2022/01/08 03:56:23;;;;;;;5.32;4.05;;;1.70;99.90;;;;;;5032538;28;20049;-77
2022/01/08 03:58:49;;;;;;;4.82;3.90;;;1.70;99.90;;;;;;5016626;28;20029;-78
2022/01/08 04:01:15;;;;;;;5.82;3.92;;;1.80;99.90;;;;;;5018387;28;20032;-77
2022/01/08 04:03:41;;;;;;;5.45;3.30;;;1.80;99.90;;;;;;5018183;28;20017;-77
2022/01/08 04:06:06;;;;;;;4.60;3.20;;;1.80;99.90;;;;;;5018006;28;20036;-78
2022/01/08 04:08:32;;;;;;;5.03;3.38;;;1.80;99.90;;;;;;5018178;28;20536;-77
2022/01/08 04:10:58;;;;;;;4.90;3.05;;;1.80;99.90;;;;;;5018061;28;20025;-77
2022/01/08 04:13:27;;;;;;;4.90;3.28;;;1.70;99.90;;;;;;5018095;28;20018;-78
2022/01/08 04:15:59;;;;;;;5.28;3.17;;;1.80;99.90;;;;;;5017961;28;20485;-77
2022/01/08 04:18:24;;;;;;;2.90;2.53;;;1.80;99.90;;;;;;5018032;28;20547;-78
2022/01/08 04:21:58;;;;;;;4.22;2.50;;;1.80;99.90;;;;;;5035658;28;20022;-77
2022/01/08 04:23:42;;;;;;;5.22;2.10;;;1.80;99.90;;;;;;5030669;28;20353;-78
2022/01/08 04:26:08;;;;;;;3.70;2.40;;;1.70;99.90;;;;;;5017780;28;20029;-77
2022/01/08 04:28:33;;;;;;;3.78;2.15;;;1.70;99.90;;;;;;5018045;28;20022;-77
2022/01/08 04:30:59;;;;;;;2.92;2.20;;;1.80;99.90;;;;;;5017808;28;20022;-77
2022/01/08 04:33:25;;;;;;;4.47;2.05;;;1.80;99.90;;;;;;5017734;28;20031;-77
2022/01/08 04:35:50;;;;;;;2.00;1.70;;;1.70;99.90;;;;;;5035423;28;20017;-77
2022/01/08 04:38:16;;;;;;;2.85;1.80;;;1.80;99.90;;;;;;5017655;28;20022;-77
2022/01/08 04:40:42;;;;;;;3.05;1.58;;;1.80;99.90;;;;;;5017570;28;20477;-77
2022/01/08 04:43:08;;;;;;;1.83;1.42;;;1.80;99.90;;;;;;5017500;28;20032;-77
2022/01/08 04:45:34;;;;;;;4.10;1.63;;;1.80;99.90;;;;;;5017343;28;20028;-77
2022/01/08 04:48:01;;;;;;;1.20;1.10;;;1.70;99.90;;;;;;5035715;28;20021;-77
2022/01/08 04:50:29;;;;;;;7.20;1.20;;;1.60;99.90;;;;;;5017372;28;20025;-77
2022/01/08 04:52:55;;;;;;;2.08;1.05;;;1.60;99.90;;;;;;5017620;28;20032;-77
2022/01/08 04:55:22;;;;;;;1.67;1.58;;;1.60;99.90;;;;;;5017328;28;20488;-78
2022/01/08 04:57:48;;;;;;;1.45;1.13;;;1.70;99.90;;;;;;5017206;28;20477;-78
2022/01/08 05:00:16;;;;;;;2.40;1.25;;;1.60;99.90;;;;;;5017168;28;20029;-77
2022/01/08 05:02:42;;;;;;;1.65;1.10;;;1.60;99.90;;;;;;5017191;28;20508;-76
2022/01/08 05:05:08;;;;;;;1.63;1.13;;;1.70;99.90;;;;;;5017045;28;20029;-77
2022/01/08 05:07:36;;;;;;;1.33;0.95;;;1.70;99.90;;;;;;5034520;28;20053;-77
2022/01/08 05:10:02;;;;;;;1.40;1.13;;;1.70;99.90;;;;;;5016762;28;20105;-77
2022/01/08 05:12:28;;;;;;;0.70;0.60;;;1.70;99.90;;;;;;5034768;28;20366;-77
2022/01/08 05:14:56;;;;;;;1.13;1.00;;;1.70;99.90;;;;;;5016863;28;20028;-77
2022/01/08 05:17:28;;;;;;;0.60;0.52;;;1.80;99.90;;;;;;5016893;28;20021;-77
2022/01/08 05:19:53;;;;;;;1.00;0.80;;;1.80;99.90;;;;;;5016897;28;20112;-78
2022/01/08 05:22:28;;;;;;;0.70;0.60;;;1.90;99.90;;;;;;5034861;28;20541;-77
2022/01/08 05:24:55;;;;;;;0.80;0.70;;;1.90;99.90;;;;;;5034556;28;20018;-77
2022/01/08 05:27:21;;;;;;;1.08;0.60;;;1.90;99.90;;;;;;5016606;28;20117;-78
2022/01/08 05:29:50;;;;;;;1.30;0.90;;;2.00;99.90;;;;;;5034398;28;20509;-78
2022/01/08 05:32:17;;;;;;;1.65;1.00;;;2.00;99.90;;;;;;5034621;28;20076;-78
2022/01/08 05:34:48;;;;;;;2.35;1.10;;;2.00;99.90;;;;;;5016472;28;20032;-78
2022/01/08 05:37:14;;;;;;;0.80;0.63;;;2.00;99.90;;;;;;5016516;28;20029;-78
2022/01/08 05:39:40;;;;;;;1.20;0.85;;;2.00;99.90;;;;;;5034187;28;20484;-78
2022/01/08 05:42:07;;;;;;;1.05;0.82;;;2.10;99.90;;;;;;5016691;28;20040;-78
2022/01/08 05:44:32;;;;;;;0.60;0.60;;;2.00;99.90;;;;;;5034091;28;20033;-78
2022/01/08 05:46:58;;;;;;;0.68;0.68;;;2.00;99.90;;;;;;5016210;28;20432;-78
2022/01/08 05:49:24;;;;;;;0.70;0.70;;;2.10;99.90;;;;;;5016336;28;20021;-78
2022/01/08 05:51:50;;;;;;;1.23;0.80;;;2.00;99.90;;;;;;5033980;28;20469;-77
2022/01/08 05:54:15;;;;;;;2.20;0.80;;;2.00;99.90;;;;;;5016278;28;20465;-78
2022/01/08 05:56:41;;;;;;;3.13;1.00;;;2.00;99.90;;;;;;5016202;28;20032;-78
2022/01/08 05:59:07;;;;;;;0.80;0.70;;;2.00;99.90;;;;;;5016155;28;20113;-78
2022/01/08 06:01:34;;;;;;;0.80;0.70;;;2.00;99.90;;;;;;5016020;28;20036;-78
2022/01/08 06:04:03;;;;;;;1.30;0.88;;;2.00;99.90;;;;;;5033750;28;20025;-77
2022/01/08 06:06:29;;;;;;;0.60;0.60;;;2.00;99.90;;;;;;5015604;28;20041;-77
2022/01/08 06:08:55;;;;;;;1.27;0.70;;;1.90;99.90;;;;;;5033708;28;20032;-78
2022/01/08 06:11:21;;;;;;;0.70;0.70;;;1.90;99.90;;;;;;5015944;28;20485;-78
2022/01/08 06:13:47;;;;;;;2.10;0.60;;;1.80;99.90;;;;;;5033573;28;20017;-78
2022/01/08 06:16:13;;;;;;;1.02;0.85;;;1.80;99.90;;;;;;5033790;28;20029;-78
2022/01/08 06:18:40;;;;;;;1.17;0.80;;;1.80;99.90;;;;;;5015773;28;20036;-78
2022/01/08 06:21:06;;;;;;;1.05;0.75;;;1.90;99.90;;;;;;5015317;28;20108;-78
2022/01/08 06:23:32;;;;;;;2.30;0.82;;;1.80;99.90;;;;;;5015718;28;20083;-78
2022/01/08 06:25:58;;;;;;;2.47;0.90;;;1.80;99.90;;;;;;5015651;28;20064;-79
2022/01/08 06:28:24;;;;;;;1.58;0.60;;;1.80;99.90;;;;;;5015710;28;20021;-78
2022/01/08 06:33:25;;;;;;;1.48;0.93;;;1.70;99.90;;;;;;1412510;26;20130;-78
2022/01/08 06:35:51;;;;;;;1.58;0.90;;;1.70;99.90;;;;;;4995963;28;20422;-78
2022/01/08 06:38:18;;;;;;;1.48;1.13;;;1.80;99.90;;;;;;4995945;28;20018;-78
2022/01/08 06:40:44;;;;;;;1.40;0.90;;;1.70;99.90;;;;;;5013473;28;20487;-77
2022/01/08 06:43:10;;;;;;;1.45;0.82;;;1.70;99.90;;;;;;4995911;28;20022;-78
2022/01/08 06:45:36;;;;;;;1.58;1.15;;;1.70;99.90;;;;;;4995795;28;20068;-78
2022/01/08 06:48:02;;;;;;;2.40;1.17;;;1.70;99.90;;;;;;5013356;28;20489;-79
2022/01/08 06:50:28;;;;;;;4.22;1.25;;;1.70;99.90;;;;;;4995762;28;20026;-78
2022/01/08 06:52:55;;;;;;;2.47;1.40;;;1.60;99.90;;;;;;5013350;28;20033;-78
2022/01/08 06:55:21;;;;;;;1.65;0.95;;;1.60;99.90;;;;;;4995741;28;20091;-78
2022/01/08 06:57:47;;;;;;;3.60;1.23;;;1.70;99.90;;;;;;4995675;28;20026;-78
2022/01/08 07:00:13;;;;;;;1.92;1.10;;;1.70;99.90;;;;;;4995713;28;20033;-78
2022/01/08 07:02:39;;;;;;;3.40;1.70;;;1.70;99.90;;;;;;4995766;28;20026;-78
2022/01/08 07:05:05;;;;;;;1.95;1.40;;;1.70;99.90;;;;;;4994096;28;20026;-78
2022/01/08 07:07:30;;;;;;;2.30;1.60;;;1.70;99.90;;;;;;4993684;28;20053;-78
2022/01/08 07:09:56;;;;;;;3.08;1.48;;;1.70;99.90;;;;;;4976316;28;20085;-77
2022/01/08 07:12:22;;;;;;;3.42;1.50;;;1.70;99.90;;;;;;4993953;28;20029;-77
2022/01/08 07:14:48;;;;;;;4.00;1.52;;;1.70;99.90;;;;;;4993883;28;20026;-78
2022/01/08 07:17:13;;;;;;;5.65;1.30;;;1.60;99.90;;;;;;4976093;28;20034;-78
2022/01/08 07:19:39;;;;;;;7.35;1.55;;;1.70;99.90;;;;;;4976115;28;20034;-79
2022/01/08 07:22:05;;;;;;;3.75;1.50;;;1.70;99.90;;;;;;4993559;28;20532;-78
2022/01/08 07:24:30;;;;;;;8.75;1.70;;;1.70;99.90;;;;;;4993585;28;20026;-78
2022/01/08 07:26:56;;;;;;;3.78;1.35;;;1.60;99.90;;;;;;4975985;28;20441;-78
2022/01/08 07:29:22;;;;;;;5.35;1.42;;;1.60;99.90;;;;;;4976116;28;20110;-78
2022/01/08 07:31:47;;;;;;;4.90;1.50;;;1.60;99.90;;;;;;4976409;28;20030;-78
2022/01/08 07:34:13;;;;;;;4.45;1.42;;;1.60;99.90;;;;;;4979596;28;20046;-78
2022/01/08 07:36:39;;;;;;;1.45;0.93;;;1.60;99.90;;;;;;4979771;28;20445;-78
2022/01/08 07:39:05;;;;;;;2.22;1.38;;;1.60;99.90;;;;;;4997269;28;20027;-78
2022/01/08 07:41:30;;;;;;;2.92;1.45;;;1.60;99.90;;;;;;4979716;28;20030;-78
2022/01/08 07:43:56;;;;;;;3.72;1.40;;;1.60;99.90;;;;;;4997093;28;20478;-79
2022/01/08 07:46:22;;;;;;;2.15;1.20;;;1.60;99.90;;;;;;4996898;28;20034;-79
2022/01/08 07:48:48;;;;;;;5.53;1.60;;;1.60;99.90;;;;;;4996934;28;20034;-78
2022/01/08 07:51:13;;;;;;;1.88;1.30;;;1.60;99.90;;;;;;4996936;28;20030;-79
2022/01/08 07:53:39;;;;;;;4.78;1.63;;;1.70;99.90;;;;;;4996958;28;20097;-78
2022/01/08 07:56:05;;;;;;;3.10;1.60;;;1.80;99.90;;;;;;4979466;28;20030;-79
2022/01/08 07:58:31;;;;;;;5.68;1.65;;;1.70;99.90;;;;;;4996834;28;20027;-77
2022/01/08 08:00:57;;;;;;;3.47;1.67;;;1.60;99.90;;;;;;5081210;22;21416;-79
2022/01/08 08:03:24;;;;;;;5.10;1.60;;;1.50;99.90;;;;;;5017839;28;20037;-79
2022/01/08 08:05:50;;;;;;;3.38;1.60;;;1.50;99.90;;;;;;5035990;28;20108;-79
2022/01/08 08:08:17;;;;;;;2.78;1.65;;;1.40;99.90;;;;;;5018333;28;20044;-79
2022/01/08 08:10:44;;;;;;;3.28;2.03;;;1.40;99.90;;;;;;5036063;28;20026;-79
2022/01/08 08:13:10;;;;;;;10.88;3.88;;;1.60;99.90;;;;;;5036027;28;20032;-79
2022/01/08 08:15:35;;;;;;;17.05;7.47;;;1.60;99.90;;;;;;5035975;28;20388;-79
2022/01/08 08:18:01;;;;;;;4.15;2.10;;;1.70;99.90;;;;;;5018066;28;20083;-79
2022/01/08 08:20:27;;;;;;;4.20;2.22;;;1.80;99.90;;;;;;5017944;28;20473;-79
2022/01/08 08:22:53;;;;;;;2.45;1.48;;;1.90;99.90;;;;;;5035691;28;20021;-79
2022/01/08 08:25:18;;;;;;;4.00;1.90;;;1.90;99.90;;;;;;5017896;28;20150;-79
2022/01/08 08:27:44;;;;;;;2.03;1.60;;;1.90;99.90;;;;;;5035525;28;20109;-79
2022/01/08 08:30:11;;;;;;;3.25;1.98;;;1.90;99.90;;;;;;5035541;28;20074;-79
2022/01/08 08:32:37;;;;;;;6.70;1.92;;;1.90;99.90;;;;;;5017783;28;20557;-79
2022/01/08 08:35:03;;;;;;;3.95;2.10;;;1.90;99.90;;;;;;5017668;28;20385;-78
2022/01/08 08:37:29;;;;;;;3.05;1.77;;;1.90;99.90;;;;;;5017630;28;20473;-79
2022/01/08 08:39:55;;;;;;;4.72;2.08;;;2.00;99.90;;;;;;5035312;28;20080;-78
2022/01/08 08:42:22;;;;;;;6.38;1.95;;;2.10;99.90;;;;;;5017518;28;20032;-78
2022/01/08 08:44:48;;;;;;;3.42;1.70;;;2.40;99.90;;;;;;5017173;28;20113;-79
2022/01/08 08:47:14;;;;;;;4.22;1.60;;;2.40;99.90;;;;;;5035162;28;20041;-78
2022/01/08 08:49:39;;;;;;;4.85;1.73;;;2.60;99.90;;;;;;5035184;28;20057;-79
2022/01/08 08:52:05;;;;;;;7.45;2.15;;;2.40;99.90;;;;;;5017411;28;20067;-78
2022/01/08 08:54:31;;;;;;;5.15;1.42;;;2.30;99.90;;;;;;5017301;28;20527;-78
2022/01/08 08:56:57;;;;;;;3.13;1.40;;;2.40;99.90;;;;;;5017187;28;20123;-78
2022/01/08 08:59:24;;;;;;;7.35;3.50;;;2.50;99.90;;;;;;5034974;28;20030;-79
2022/01/08 09:01:50;;;;;;;4.63;2.63;;;2.40;99.90;;;;;;5017072;28;20501;-78
2022/01/08 09:04:16;;;;;;;6.93;2.40;;;2.40;99.90;;;;;;5034949;28;20473;-79
2022/01/08 09:06:42;;;;;;;8.63;3.03;;;2.40;99.90;;;;;;5017015;28;20036;-79
2022/01/08 09:09:07;;;;;;;5.50;2.28;;;2.50;99.90;;;;;;5034848;28;20070;-79
2022/01/08 09:11:34;;;;;;;12.10;4.30;;;2.60;99.90;;;;;;5017065;28;20029;-79
2022/01/08 09:14:00;;;;;;;16.80;5.88;;;2.40;99.90;;;;;;5016996;28;20056;-79
2022/01/08 09:16:26;;;;;;;5.20;2.35;;;2.70;99.90;;;;;;5034746;28;20056;-79
2022/01/08 09:18:52;;;;;;;11.20;3.10;;;3.10;99.90;;;;;;5034663;28;20026;-79
2022/01/08 09:21:18;;;;;;;8.60;2.80;;;3.00;99.90;;;;;;5016855;28;20048;-79
2022/01/08 09:23:44;;;;;;;7.03;2.10;;;3.20;99.90;;;;;;5016782;28;20083;-78
2022/01/08 09:26:10;;;;;;;3.33;1.90;;;3.40;99.90;;;;;;5016696;28;20037;-79
2022/01/08 09:28:36;;;;;;;4.22;2.30;;;3.70;99.90;;;;;;5016949;28;20072;-79
2022/01/08 09:31:03;;;;;;;3.47;1.60;;;3.50;99.90;;;;;;5034447;28;20033;-79
2022/01/08 09:33:29;;;;;;;5.53;2.45;;;3.20;99.90;;;;;;5034403;28;20108;-79
2022/01/08 09:35:55;;;;;;;4.45;2.08;;;3.20;99.90;;;;;;5016569;28;20473;-79
2022/01/08 09:38:21;;;;;;;10.18;3.72;;;3.30;99.90;;;;;;5016480;28;20026;-79
2022/01/08 09:40:47;;;;;;;4.35;1.77;;;3.40;99.90;;;;;;5034202;28;20037;-79
2022/01/08 09:43:13;;;;;;;43.20;17.95;;;3.40;99.90;;;;;;5016451;28;20021;-79
2022/01/08 09:45:39;;;;;;;10.52;2.63;;;3.40;99.90;;;;;;5016425;28;20552;-80
2022/01/08 09:48:05;;;;;;;5.15;2.17;;;3.40;99.90;;;;;;5034064;28;20108;-80
2022/01/08 09:50:30;;;;;;;7.88;2.20;;;3.40;99.90;;;;;;5016310;28;20083;-80
2022/01/08 09:52:58;;;;;;;5.07;1.88;;;3.30;99.90;;;;;;5034250;28;20047;-80
2022/01/08 09:55:28;;;;;;;5.63;1.90;;;3.20;99.90;;;;;;5015558;28;20026;-80
2022/01/08 09:57:55;;;;;;;6.30;2.35;;;3.10;99.90;;;;;;5016036;28;20374;-80
2022/01/08 10:00:22;;;;;;;5.85;1.92;;;3.10;99.90;;;;;;5016111;28;20029;-80
2022/01/08 10:02:49;;;;;;;6.18;1.75;;;3.20;99.90;;;;;;5015884;28;20049;-80
2022/01/08 10:05:16;;;;;;;4.72;2.13;;;3.10;99.90;;;;;;5016030;28;20386;-80
2022/01/08 10:07:43;;;;;;;6.72;1.75;;;3.20;99.90;;;;;;5015945;28;20033;-80
2022/01/08 10:10:12;;;;;;;5.88;2.00;;;3.20;99.90;;;;;;5016215;28;20493;-79
2022/01/08 10:12:44;;;;;;;4.85;2.25;;;3.20;99.90;;;;;;5015882;28;20044;-79
2022/01/08 10:18:11;;;;;;;6.35;2.50;;;3.80;99.90;;;;;;5000143;28;20040;-79
2022/01/08 10:20:39;;;;;;;4.38;2.15;;;4.30;99.90;;;;;;5015813;28;20033;-79
2022/01/08 10:23:08;;;;;;;9.25;2.58;;;4.50;99.90;;;;;;5015771;28;20119;-80
2022/01/08 10:25:34;;;;;;;7.40;1.80;;;4.90;99.90;;;;;;5015877;28;20018;-80
2022/01/08 10:27:59;;;;;;;7.85;2.20;;;4.80;99.90;;;;;;5015563;28;20029;-80
2022/01/08 10:30:27;;;;;;;6.93;2.65;;;4.30;99.90;;;;;;5015749;28;20366;-80
2022/01/08 10:33:00;;;;;;;10.85;2.15;;;4.00;99.90;;;;;;5015567;28;20056;-80
2022/01/08 10:35:46;;;;;;;9.43;2.40;;;3.80;99.90;;;;;;5033695;28;20017;-79
2022/01/08 10:38:12;;;;;;;6.95;2.33;;;3.50;99.90;;;;;;5015520;28;20264;-80
2022/01/08 10:40:38;;;;;;;7.70;2.00;;;3.20;99.90;;;;;;5015410;28;20025;-79
2022/01/08 10:43:20;;;;;;;7.65;2.13;;;3.10;99.90;;;;;;5033196;28;20021;-79
2022/01/08 10:45:45;;;;;;;5.53;1.88;;;3.30;99.90;;;;;;5015493;28;20025;-80
2022/01/08 10:48:11;;;;;;;8.50;2.42;;;3.70;99.90;;;;;;5015333;28;20095;-80
2022/01/08 10:50:37;;;;;;;9.32;1.85;;;4.20;99.90;;;;;;5015535;28;20366;-80
2022/01/08 10:53:03;;;;;;;7.45;2.80;;;4.20;99.90;;;;;;5015737;28;20112;-81
2022/01/08 10:55:30;;;;;;;8.98;2.97;;;4.10;99.90;;;;;;5015356;28;20025;-81
2022/01/08 10:57:56;;;;;;;12.07;2.50;;;4.00;99.90;;;;;;5033089;28;20029;-80
2022/01/08 11:00:30;;;;;;;8.60;1.85;;;3.80;99.90;;;;;;5033116;28;20041;-81
2022/01/08 11:02:56;;;;;;;5.50;2.03;;;3.70;99.90;;;;;;5015491;28;20600;-81
2022/01/08 11:05:22;;;;;;;8.38;2.35;;;3.80;99.90;;;;;;5015250;28;20037;-81
2022/01/08 11:07:48;;;;;;;8.98;1.52;;;3.70;99.90;;;;;;5017211;28;20037;-80
2022/01/08 11:10:17;;;;;;;6.32;1.67;;;3.60;99.90;;;;;;5037372;28;20438;-80
2022/01/08 11:12:45;;;;;;;6.65;1.52;;;3.50;99.90;;;;;;5019533;28;20167;-80
2022/01/08 11:17:41;;;;;;;6.03;2.05;;;3.80;99.90;;;;;;5037266;28;20036;-80
2022/01/08 11:20:24;;;;;;;5.50;1.85;;;3.90;99.90;;;;;;5036925;28;20388;-81
2022/01/08 11:22:55;;;;;;;17.35;6.20;;;3.80;99.90;;;;;;5019167;28;20029;-80
2022/01/08 11:25:23;;;;;;;4.88;1.60;;;3.60;99.90;;;;;;5019106;28;20551;-80
2022/01/08 11:28:05;;;;;;;4.65;2.00;;;3.60;99.90;;;;;;5018907;28;20029;-80
2022/01/08 11:30:37;;;;;;;7.88;1.65;;;3.60;99.90;;;;;;5037033;28;20421;-80
2022/01/08 11:33:12;;;;;;;5.22;1.70;;;3.90;99.90;;;;;;5018965;28;20041;-81
2022/01/08 11:35:38;;;;;;;3.97;1.55;;;4.30;99.90;;;;;;5018862;28;20017;-81
2022/01/08 11:38:10;;;;;;;8.43;1.52;;;4.60;99.90;;;;;;5018814;28;20547;-80
2022/01/08 11:40:38;;;;;;;19.92;9.23;;;4.60;99.90;;;;;;5018686;28;20131;-81
2022/01/08 11:43:07;;;;;;;5.80;1.17;;;4.60;99.90;;;;;;5018776;28;20053;-80
2022/01/08 11:45:39;;;;;;;4.85;1.23;;;4.70;99.90;;;;;;5018668;28;20057;-81
2022/01/08 11:48:08;;;;;;;6.65;2.13;;;5.20;99.90;;;;;;5018597;28;20025;-81
2022/01/08 11:50:35;;;;;;;8.65;1.73;;;5.80;99.90;;;;;;5018563;28;20076;-80
2022/01/08 11:53:23;;;;;;;6.32;1.52;;;5.30;99.90;;;;;;5036498;28;20056;-80
2022/01/08 11:55:57;;;;;;;6.00;1.50;;;5.00;99.90;;;;;;5036330;28;20079;-80
2022/01/08 11:58:28;;;;;;;6.93;1.58;;;4.90;99.90;;;;;;5036269;28;20469;-80
2022/01/08 12:00:58;;;;;;;5.22;1.83;;;4.50;99.90;;;;;;5018419;28;20029;-81
2022/01/08 12:03:40;;;;;;;6.10;1.70;;;3.70;99.90;;;;;;5018327;28;20048;-81
2022/01/08 12:06:26;;;;;;;3.47;1.70;;;3.70;99.90;;;;;;5035871;28;20036;-80
2022/01/08 12:09:25;;;;;;;5.72;1.80;;;3.30;99.90;;;;;;5018228;28;20018;-80
2022/01/08 12:12:09;;;;;;;4.65;1.85;;;2.90;99.90;;;;;;5018262;28;20024;-81
2022/01/08 12:14:38;;;;;;;7.35;2.00;;;3.00;99.90;;;;;;5036238;28;20029;-81
2022/01/08 12:17:24;;;;;;;9.35;2.25;;;3.00;99.90;;;;;;5018122;28;20037;-81
2022/01/08 12:19:55;;;;;;;6.93;2.38;;;3.80;99.90;;;;;;5034675;28;20042;-81
2022/01/08 12:22:22;;;;;;;9.82;2.00;;;;;;;;;;5017988;28;20035;-81
2022/01/08 12:24:57;;;;;;;6.55;1.92;;;5.50;99.90;;;;;;5035701;28;20036;-81
2022/01/08 12:27:34;;;;;;;3.75;1.58;;;6.50;99.90;;;;;;5035587;28;20095;-80
2022/01/08 12:30:03;;;;;;;4.25;1.50;;;6.60;99.90;;;;;;5017895;28;20034;-81
2022/01/08 12:32:37;;;;;;;2.78;1.20;;;6.80;99.90;;;;;;5017830;28;20048;-81
2022/01/08 12:35:15;;;;;;;5.20;1.27;;;6.60;99.90;;;;;;5017830;28;20030;-81
2022/01/08 12:37:43;;;;;;;3.10;1.38;;;6.30;99.90;;;;;;5035493;28;20127;-81
2022/01/08 12:40:11;;;;;;;5.03;1.58;;;6.60;99.90;;;;;;5018558;28;20342;-79
2022/01/08 12:42:43;;;;;;;2.53;0.95;;;7.10;99.90;;;;;;5017694;28;20117;-79
2022/01/08 12:45:20;;;;;;;4.07;1.40;;;7.90;99.90;;;;;;5035339;28;20026;-79
2022/01/08 12:48:01;;;;;;;4.97;1.13;;;8.30;99.90;;;;;;5017392;28;20025;-79
2022/01/08 12:50:31;;;;;;;2.80;1.17;;;7.20;99.90;;;;;;5035266;28;20385;-78
2022/01/08 12:53:06;;;;;;;3.38;1.80;;;6.50;99.90;;;;;;5017486;28;20111;-82
2022/01/08 12:55:40;;;;;;;4.45;1.98;;;4.70;99.90;;;;;;5017329;28;20018;-81
2022/01/08 12:58:29;;;;;;;2.10;1.10;;;4.30;99.90;;;;;;5017343;28;20131;-81
2022/01/08 13:01:07;;;;;;;7.88;3.10;;;3.90;99.90;;;;;;5035296;28;20033;-82
2022/01/08 13:03:35;;;;;;;6.25;2.95;;;3.70;99.90;;;;;;5017249;28;20061;-80
2022/01/08 13:06:18;;;;;;;8.07;1.80;;;3.80;99.90;;;;;;5017040;28;20116;-80
2022/01/08 13:08:46;;;;;;;5.10;1.95;;;3.80;99.90;;;;;;5017847;28;20450;-80
2022/01/08 13:11:15;;;;;;;4.47;1.88;;;3.90;99.90;;;;;;5017064;28;20041;-81
2022/01/08 13:14:02;;;;;;;3.78;2.08;;;4.10;99.90;;;;;;5016972;28;20022;-79
2022/01/08 13:16:32;;;;;;;4.53;1.80;;;4.10;99.90;;;;;;5017013;28;20393;-78
2022/01/08 13:19:05;;;;;;;7.10;2.25;;;4.00;99.90;;;;;;5034718;28;20393;-79
2022/01/08 13:21:43;;;;;;;6.47;2.13;;;3.90;99.90;;;;;;5016924;28;20030;-78
2022/01/08 13:24:41;;;;;;;4.78;1.83;;;3.80;99.90;;;;;;5016903;28;20037;-81
2022/01/08 13:27:11;;;;;;;2.92;1.70;;;3.90;99.90;;;;;;5016691;28;20060;-78
2022/01/08 13:29:41;;;;;;;4.82;1.65;;;4.00;99.90;;;;;;5034383;28;20496;-80